createdAt,value
2022-08-26T00:01:57.454Z,74.74
2022-08-26T00:04:29.984Z,75.07
2022-08-26T00:07:01.737Z,75.12
2022-08-26T00:09:37.252Z,74.63
2022-08-26T00:12:12.391Z,74.71
2022-08-26T00:14:44.265Z,74.88
2022-08-26T00:17:15.937Z,74.89
2022-08-26T00:19:47.538Z,74.96
2022-08-26T00:22:21.596Z,75.05
2022-08-26T00:24:53.357Z,75.18
2022-08-26T00:27:25.020Z,75.49
2022-08-26T00:29:57.335Z,75.60
2022-08-26T00:32:30.134Z,75.35
2022-08-26T00:35:04.449Z,75.84
2022-08-26T00:37:35.988Z,75.99
2022-08-26T00:40:13.222Z,76.18
2022-08-26T00:42:45.917Z,76.11
2022-08-26T00:45:18.347Z,76.09
2022-08-26T00:47:54.680Z,76.34
2022-08-26T00:50:32.941Z,76.85
2022-08-26T00:53:23.837Z,77.67
2022-08-26T00:56:13.274Z,77.71
2022-08-26T00:58:48.935Z,77.81
2022-08-26T01:01:22.931Z,77.84
2022-08-26T01:03:55.660Z,77.63
2022-08-26T01:06:28.534Z,77.99
2022-08-26T01:09:05.225Z,78.37
2022-08-26T01:11:40.300Z,78.47
2022-08-26T01:14:13.577Z,77.99
2022-08-26T01:16:45.734Z,78.36
2022-08-26T01:19:24.989Z,78.33
2022-08-26T01:22:00.140Z,77.89
2022-08-26T01:24:31.895Z,78.52
2022-08-26T01:27:07.652Z,78.80
2022-08-26T01:29:42.689Z,78.77
2022-08-26T01:32:18.616Z,78.97
2022-08-26T01:34:50.861Z,79.32
2022-08-26T01:37:28.871Z,79.19
2022-08-26T01:40:00.793Z,79.09
2022-08-26T01:42:32.894Z,79.37
2022-08-26T01:45:16.447Z,79.59
2022-08-26T01:47:49.994Z,79.48
2022-08-26T01:50:35.155Z,79.54
2022-08-26T01:53:10.798Z,79.10
2022-08-26T01:55:46.131Z,79.20
2022-08-26T01:58:30.380Z,79.41
2022-08-26T02:01:02.976Z,79.70
2022-08-26T02:03:39.705Z,79.68
2022-08-26T02:06:15.001Z,79.64
2022-08-26T02:08:50.663Z,79.64
2022-08-26T02:11:22.949Z,79.46
2022-08-26T02:14:02.812Z,79.67
2022-08-26T02:16:39.641Z,79.91
2022-08-26T02:19:20.378Z,79.94
2022-08-26T02:21:53.748Z,79.81
2022-08-26T02:24:29.780Z,79.78
2022-08-26T02:27:01.573Z,80.18
2022-08-26T02:29:38.318Z,80.15
2022-08-26T02:32:10.227Z,80.37
2022-08-26T02:34:41.885Z,80.06
2022-08-26T02:37:14.183Z,80.27
2022-08-26T02:39:45.889Z,80.26
2022-08-26T02:42:19.929Z,80.38
2022-08-26T02:44:51.920Z,80.15
2022-08-26T02:47:24.772Z,80.27
2022-08-26T02:49:56.917Z,80.20
2022-08-26T02:52:28.606Z,80.59
2022-08-26T02:55:00.218Z,80.29
2022-08-26T02:57:33.185Z,80.67
2022-08-26T03:00:07.205Z,80.64
2022-08-26T03:02:38.825Z,80.82
2022-08-26T03:05:11.366Z,80.54
2022-08-26T03:07:43.470Z,80.69
2022-08-26T03:10:18.479Z,80.72
2022-08-26T03:12:50.135Z,80.46
2022-08-26T03:15:24.372Z,80.30
2022-08-26T03:17:56.292Z,80.74
2022-08-26T03:20:28.757Z,80.77
2022-08-26T03:23:04.393Z,80.76
2022-08-26T03:25:36.039Z,80.72
2022-08-26T03:28:09.518Z,80.88
2022-08-26T03:30:44.639Z,80.87
2022-08-26T03:33:16.945Z,80.95
2022-08-26T03:35:50.666Z,80.67
2022-08-26T03:38:25.169Z,80.75
2022-08-26T03:40:56.651Z,80.66
2022-08-26T03:43:28.839Z,81.08
2022-08-26T03:46:08.590Z,81.35
2022-08-26T03:48:40.611Z,81.38
2022-08-26T03:51:19.418Z,81.20
2022-08-26T03:53:51.015Z,81.03
2022-08-26T03:56:22.712Z,81.08
2022-08-26T03:58:54.765Z,81.29
2022-08-26T04:01:27.595Z,81.27
2022-08-26T04:04:00.424Z,81.31
2022-08-26T04:06:35.705Z,81.35
2022-08-26T04:09:10.394Z,81.19
2022-08-26T04:11:43.825Z,80.73
2022-08-26T04:14:20.059Z,81.11
2022-08-26T04:16:55.382Z,81.20
2022-08-26T04:19:27.057Z,81.22
2022-08-26T04:21:59.169Z,81.22
2022-08-26T04:24:32.896Z,81.12
2022-08-26T04:27:04.770Z,81.16
2022-08-26T04:29:43.580Z,81.37
2022-08-26T04:32:15.694Z,81.11
2022-08-26T04:34:48.077Z,81.25
2022-08-26T04:37:20.302Z,81.13
2022-08-26T04:39:54.352Z,80.77
2022-08-26T04:42:26.349Z,80.74
2022-08-26T04:45:01.124Z,80.88
2022-08-26T04:47:32.806Z,80.85
2022-08-26T04:50:05.089Z,80.31
2022-08-26T04:52:38.921Z,80.24
2022-08-26T04:55:10.705Z,79.82
2022-08-26T04:57:43.117Z,79.53
2022-08-26T05:00:15.407Z,78.97
2022-08-26T05:02:47.106Z,78.63
2022-08-26T05:05:23.505Z,78.13
2022-08-26T05:07:55.101Z,77.83
2022-08-26T05:10:27.024Z,76.95
2022-08-26T05:13:00.260Z,76.78
2022-08-26T05:15:31.836Z,75.88
2022-08-26T05:18:07.781Z,75.35
2022-08-26T05:20:41.581Z,75.23
2022-08-26T05:23:14.782Z,74.75
2022-08-26T05:25:48.816Z,74.00
2022-08-26T05:28:22.110Z,73.52
2022-08-26T05:30:54.306Z,72.40
2022-08-26T05:33:25.977Z,71.23
2022-08-26T05:35:57.612Z,70.59
2022-08-26T05:38:30.262Z,70.45
2022-08-26T05:41:02.601Z,69.74
2022-08-26T05:43:38.439Z,69.72
2022-08-26T05:46:10.561Z,69.15
2022-08-26T05:48:44.208Z,68.34
2022-08-26T05:51:16.190Z,67.25
2022-08-26T05:53:54.585Z,66.01
2022-08-26T05:56:27.831Z,65.50
2022-08-26T05:59:03.283Z,65.38
2022-08-26T06:01:36.143Z,65.05
2022-08-26T06:04:07.947Z,64.22
2022-08-26T06:06:42.685Z,63.28
2022-08-26T06:09:17.438Z,62.83
2022-08-26T06:11:50.189Z,62.00
2022-08-26T06:14:22.972Z,60.58
2022-08-26T06:16:54.955Z,59.33
2022-08-26T06:19:32.797Z,58.84
2022-08-26T06:22:24.868Z,58.15
2022-08-26T06:25:15.850Z,56.80
2022-08-26T06:27:48.870Z,56.25
2022-08-26T06:30:21.063Z,55.84
2022-08-26T06:32:54.228Z,55.77
2022-08-26T06:35:26.709Z,54.84
2022-08-26T06:37:58.425Z,54.77
2022-08-26T06:40:30.156Z,54.04
2022-08-26T06:43:01.977Z,53.70
2022-08-26T06:45:34.714Z,52.79
2022-08-26T06:48:07.537Z,51.09
2022-08-26T06:50:40.859Z,51.04
2022-08-26T06:53:13.636Z,50.58
2022-08-26T06:55:46.911Z,49.95
2022-08-26T06:58:23.469Z,49.77
2022-08-26T07:01:01.991Z,48.70
2022-08-26T07:03:39.628Z,48.56
2022-08-26T07:06:11.836Z,48.34
2022-08-26T07:08:43.421Z,48.47
2022-08-26T07:11:16.416Z,48.58
2022-08-26T07:13:50.455Z,47.65
2022-08-26T07:16:27.508Z,47.06
2022-08-26T07:18:59.329Z,46.65
2022-08-26T07:21:33.107Z,47.35
2022-08-26T07:24:04.771Z,46.87
2022-08-26T07:26:36.422Z,45.72
2022-08-26T07:29:09.888Z,45.77
2022-08-26T07:31:42.691Z,45.44
2022-08-26T07:34:17.134Z,45.49
2022-08-26T07:36:51.462Z,44.96
2022-08-26T07:39:26.788Z,44.44
2022-08-26T07:41:59.936Z,44.18
2022-08-26T07:44:31.645Z,43.85
2022-08-26T07:47:03.746Z,43.42
2022-08-26T07:49:42.690Z,42.91
2022-08-26T07:52:14.321Z,43.08
2022-08-26T07:54:45.903Z,42.82
2022-08-26T07:57:17.493Z,42.60
2022-08-26T07:59:51.063Z,43.18
2022-08-26T08:02:24.129Z,42.38
2022-08-26T08:04:56.845Z,43.16
2022-08-26T08:07:44.530Z,42.09
2022-08-26T08:10:21.063Z,41.87
2022-08-26T08:12:53.476Z,41.69
2022-08-26T08:15:28.747Z,41.62
2022-08-26T08:18:00.998Z,41.33
2022-08-26T08:20:34.114Z,40.60
2022-08-26T08:23:05.773Z,40.16
2022-08-26T08:25:38.178Z,40.79
2022-08-26T08:28:09.970Z,39.50
2022-08-26T08:30:42.970Z,40.48
2022-08-26T08:33:14.898Z,41.50
2022-08-26T08:35:46.490Z,41.61
2022-08-26T08:38:18.476Z,41.29
2022-08-26T08:40:50.784Z,40.76
2022-08-26T08:43:38.373Z,40.52
2022-08-26T08:46:16.804Z,39.02
2022-08-26T08:48:57.190Z,38.71
2022-08-26T08:51:52.311Z,38.43
2022-08-26T08:54:26.762Z,37.91
2022-08-26T08:58:02.070Z,38.55
2022-08-26T09:00:58.591Z,37.63
2022-08-26T09:03:53.508Z,37.28
2022-08-26T09:06:25.700Z,36.59
2022-08-26T09:09:04.800Z,36.25
2022-08-26T09:11:38.788Z,36.12
2022-08-26T09:14:10.699Z,37.15
2022-08-26T09:16:59.127Z,36.91
2022-08-26T09:20:01.341Z,36.63
2022-08-26T09:22:39.117Z,35.96
2022-08-26T09:25:13.737Z,35.74
2022-08-26T09:27:50.263Z,35.98
2022-08-26T09:30:32.946Z,35.91
2022-08-26T09:33:11.161Z,35.61
2022-08-26T09:35:47.305Z,36.00
2022-08-26T09:38:28.021Z,35.89
2022-08-26T09:41:05.420Z,36.05
2022-08-26T09:43:38.414Z,35.25
2022-08-26T09:46:18.597Z,35.03
2022-08-26T09:48:51.793Z,34.10
2022-08-26T09:51:30.776Z,33.55
2022-08-26T09:54:05.717Z,33.26
2022-08-26T09:56:39.837Z,32.35
2022-08-26T09:59:14.301Z,33.03
2022-08-26T10:01:50.659Z,34.18
2022-08-26T10:04:31.907Z,34.73
2022-08-26T10:07:08.094Z,34.35
2022-08-26T10:09:43.138Z,33.58
2022-08-26T10:12:21.413Z,33.21
2022-08-26T10:14:57.477Z,34.27
2022-08-26T10:17:38.481Z,34.23
2022-08-26T10:20:26.345Z,34.69
2022-08-26T10:23:18.525Z,36.00
2022-08-26T10:26:02.829Z,37.41
2022-08-26T10:28:50.079Z,37.85
2022-08-26T10:31:40.598Z,37.63
2022-08-26T10:34:14.148Z,37.64
2022-08-26T10:37:14.725Z,36.40
2022-08-26T10:40:16.120Z,35.76
2022-08-26T10:43:12.451Z,37.00
2022-08-26T10:45:51.313Z,37.08
2022-08-26T10:48:43.931Z,36.98
2022-08-26T10:51:28.814Z,36.62
2022-08-26T10:54:37.362Z,37.53
2022-08-26T10:57:30.378Z,40.15
2022-08-26T11:00:44.053Z,39.29
2022-08-26T11:03:21.710Z,40.50
2022-08-26T11:06:19.148Z,40.45
2022-08-26T11:08:53.949Z,42.04
2022-08-26T11:11:40.552Z,41.58
2022-08-26T11:14:28.953Z,41.79
2022-08-26T11:17:02.121Z,40.88
2022-08-26T11:19:59.599Z,41.57
2022-08-26T11:22:47.918Z,40.19
2022-08-26T11:25:24.439Z,40.00
2022-08-26T11:28:00.617Z,39.90
2022-08-26T11:30:42.703Z,38.43
2022-08-26T11:33:43.879Z,38.79
2022-08-26T11:36:51.920Z,39.21
2022-08-26T11:39:54.723Z,41.03
2022-08-26T11:42:42.722Z,40.89
2022-08-26T11:45:17.965Z,41.29
2022-08-26T11:47:50.132Z,40.99
2022-08-26T11:50:26.393Z,40.39
2022-08-26T11:53:06.282Z,40.03
2022-08-26T11:55:44.889Z,40.39
2022-08-26T11:58:22.307Z,40.54
2022-08-26T12:01:27.446Z,41.04
2022-08-26T12:04:08.282Z,41.56
2022-08-26T12:06:47.402Z,42.36
2022-08-26T12:09:28.565Z,42.08
2022-08-26T12:12:12.105Z,42.51
2022-08-26T12:14:44.701Z,43.55
2022-08-26T12:17:28.597Z,43.54
2022-08-26T12:20:00.240Z,41.69
2022-08-26T12:22:35.925Z,41.18
2022-08-26T12:25:10.124Z,41.28
2022-08-26T12:27:44.074Z,40.81
2022-08-26T12:30:22.465Z,41.38
2022-08-26T12:33:22.494Z,41.46
2022-08-26T12:35:56.653Z,42.23
2022-08-26T12:38:29.902Z,42.44
2022-08-26T12:41:01.694Z,41.96
2022-08-26T12:43:40.637Z,41.59
2022-08-26T12:46:26.906Z,42.76
2022-08-26T12:49:03.919Z,41.88
2022-08-26T12:51:41.979Z,42.03
2022-08-26T12:54:15.938Z,42.09
2022-08-26T12:56:47.637Z,42.75
2022-08-26T12:59:26.076Z,43.11
2022-08-26T13:01:58.052Z,42.09
2022-08-26T13:04:33.908Z,42.59
2022-08-26T13:07:34.628Z,42.89
2022-08-26T13:10:06.622Z,42.11
2022-08-26T13:12:42.061Z,41.29
2022-08-26T13:15:13.671Z,41.83
2022-08-26T13:17:45.308Z,42.10
2022-08-26T13:20:17.072Z,42.30
2022-08-26T13:22:51.697Z,42.14
2022-08-26T13:25:30.124Z,42.78
2022-08-26T13:28:01.898Z,42.94
2022-08-26T13:30:33.637Z,42.69
2022-08-26T13:33:06.339Z,42.57
2022-08-26T13:35:38.730Z,42.34
2022-08-26T13:38:22.369Z,42.18
2022-08-26T13:41:06.303Z,41.15
2022-08-26T13:43:37.995Z,41.13
2022-08-26T13:46:09.662Z,40.96
2022-08-26T13:48:41.315Z,40.59
2022-08-26T13:51:18.587Z,40.26
2022-08-26T13:53:52.400Z,41.63
2022-08-26T13:56:24.578Z,41.44
2022-08-26T13:58:57.946Z,41.65
2022-08-26T14:01:31.137Z,42.08
2022-08-26T14:04:03.325Z,41.78
2022-08-26T14:06:34.948Z,41.55
2022-08-26T14:09:06.622Z,41.93
2022-08-26T14:11:41.281Z,42.49
2022-08-26T14:14:26.934Z,42.24
2022-08-26T14:17:00.282Z,41.77
2022-08-26T14:19:32.371Z,41.46
2022-08-26T14:22:04.185Z,41.19
2022-08-26T14:24:35.811Z,41.10
2022-08-26T14:27:07.444Z,41.48
2022-08-26T14:29:40.034Z,42.23
2022-08-26T14:32:24.678Z,40.66
2022-08-26T14:34:56.493Z,39.60
2022-08-26T14:37:28.159Z,40.06
2022-08-26T14:39:59.888Z,39.95
2022-08-26T14:42:32.299Z,40.05
2022-08-26T14:45:07.201Z,39.84
2022-08-26T14:47:39.309Z,40.04
2022-08-26T14:50:17.302Z,39.99
2022-08-26T14:53:07.876Z,41.00
2022-08-26T14:55:41.859Z,42.61
2022-08-26T14:58:13.479Z,44.01
2022-08-26T15:00:45.140Z,44.29
2022-08-26T15:05:55.589Z,46.14
2022-08-26T15:08:27.253Z,46.12
2022-08-26T15:10:59.611Z,45.89
2022-08-26T15:13:33.921Z,47.15
2022-08-26T15:16:07.165Z,47.64
2022-08-26T15:18:41.728Z,48.72
2022-08-26T15:21:13.343Z,49.09
2022-08-26T15:23:47.787Z,50.28
2022-08-26T15:26:20.917Z,49.97
2022-08-26T15:28:52.720Z,50.79
2022-08-26T15:31:31.384Z,51.16
2022-08-26T15:34:06.387Z,51.22
2022-08-26T15:36:38.481Z,51.64
2022-08-26T15:39:10.653Z,53.21
2022-08-26T15:41:42.435Z,54.57
2022-08-26T15:44:14.360Z,60.04
2022-08-26T15:46:48.349Z,61.07
2022-08-26T15:49:20.092Z,63.81
2022-08-26T15:51:53.311Z,63.70
2022-08-26T15:54:25.005Z,61.32
2022-08-26T15:56:59.487Z,62.85
2022-08-26T15:59:34.164Z,66.37
2022-08-26T16:02:05.943Z,67.01
2022-08-26T16:04:37.604Z,66.48
2022-08-26T16:07:09.256Z,68.99
2022-08-26T16:09:40.866Z,69.43
2022-08-26T16:12:12.551Z,68.74
2022-08-26T16:14:45.562Z,69.53
2022-08-26T16:17:18.275Z,69.71
2022-08-26T16:19:49.971Z,70.75
2022-08-26T16:22:21.628Z,69.98
2022-08-26T16:24:58.250Z,70.00
2022-08-26T16:27:29.863Z,72.41
2022-08-26T16:30:03.642Z,72.82
2022-08-26T16:32:35.318Z,72.00
2022-08-26T16:35:07.438Z,71.83
2022-08-26T16:37:39.490Z,70.95
2022-08-26T16:40:11.462Z,70.05
2022-08-26T16:42:45.093Z,70.96
2022-08-26T16:45:17.176Z,72.71
2022-08-26T16:47:50.022Z,73.01
2022-08-26T16:50:25.937Z,73.26
2022-08-26T16:52:57.611Z,72.93
2022-08-26T16:55:30.044Z,73.27
2022-08-26T16:58:02.312Z,72.32
2022-08-26T17:00:34.699Z,70.74
2022-08-26T17:03:06.490Z,70.73
2022-08-26T17:05:40.875Z,70.08
2022-08-26T17:08:16.359Z,70.54
2022-08-26T17:11:01.035Z,70.19
2022-08-26T17:13:35.245Z,72.09
2022-08-26T17:16:09.807Z,72.51
2022-08-26T17:18:41.532Z,72.14
2022-08-26T17:21:16.265Z,72.82
2022-08-26T17:23:48.060Z,72.21
2022-08-26T17:26:20.212Z,72.98
2022-08-26T17:28:52.591Z,73.17
2022-08-26T17:31:27.234Z,72.97
2022-08-26T17:33:59.005Z,73.32
2022-08-26T17:36:30.579Z,73.24
2022-08-26T17:39:02.286Z,73.14
2022-08-26T17:41:33.994Z,73.82
2022-08-26T17:44:05.840Z,74.76
2022-08-26T17:46:38.492Z,74.26
2022-08-26T17:49:10.314Z,73.94
2022-08-26T17:51:41.928Z,74.02
2022-08-26T17:54:14.441Z,74.30
2022-08-26T17:56:46.042Z,74.91
2022-08-26T17:59:20.655Z,74.61
2022-08-26T18:01:56.656Z,74.72
2022-08-26T18:04:28.418Z,74.41
2022-08-26T18:07:00.081Z,74.28
2022-08-26T18:09:32.352Z,74.34
2022-08-26T18:12:09.067Z,74.59
2022-08-26T18:14:40.691Z,74.88
2022-08-26T18:17:12.376Z,74.93
2022-08-26T18:19:49.174Z,76.45
2022-08-26T18:22:21.933Z,76.65
2022-08-26T18:24:58.847Z,76.74
2022-08-26T18:27:30.948Z,76.60
2022-08-26T18:30:09.805Z,75.93
2022-08-26T18:32:44.280Z,75.86
2022-08-26T18:35:16.844Z,76.29
2022-08-26T18:37:48.405Z,76.33
2022-08-26T18:40:22.100Z,75.41
2022-08-26T18:42:54.037Z,75.75
2022-08-26T18:45:25.951Z,75.10
2022-08-26T18:47:57.544Z,75.05
2022-08-26T18:50:30.633Z,75.30
2022-08-26T18:53:02.550Z,75.51
2022-08-26T18:55:34.238Z,75.81
2022-08-26T18:58:05.826Z,75.12
2022-08-26T19:00:37.804Z,75.80
2022-08-26T19:03:18.452Z,75.24
2022-08-26T19:05:50.804Z,75.42
2022-08-26T19:08:22.600Z,75.09
2022-08-26T19:10:54.278Z,75.05
2022-08-26T19:13:25.904Z,74.88
2022-08-26T19:15:57.594Z,74.76
2022-08-26T19:18:29.521Z,74.99
2022-08-26T19:21:03.517Z,74.63
2022-08-26T19:23:35.357Z,74.97
2022-08-26T19:26:07.701Z,75.13
2022-08-26T19:28:40.811Z,74.89
2022-08-26T19:31:12.747Z,74.08
2022-08-26T19:33:45.400Z,73.88
2022-08-26T19:36:21.727Z,74.42
2022-08-26T19:38:54.357Z,74.49
2022-08-26T19:41:37.240Z,75.17
2022-08-26T19:44:35.076Z,75.58
2022-08-26T19:47:08.882Z,75.86
2022-08-26T19:49:40.870Z,75.95
2022-08-26T19:52:12.551Z,75.99
2022-08-26T19:54:44.573Z,76.40
2022-08-26T19:57:16.925Z,76.16
2022-08-26T19:59:48.604Z,76.33
2022-08-26T20:02:22.298Z,76.44
2022-08-26T20:04:54.585Z,76.63
2022-08-26T20:07:26.706Z,76.98
2022-08-26T20:09:59.476Z,76.95
2022-08-26T20:12:33.592Z,76.58
2022-08-26T20:15:05.818Z,76.21
2022-08-26T20:17:38.386Z,76.30
2022-08-26T20:20:33.787Z,76.25
2022-08-26T20:23:06.048Z,75.75
2022-08-26T20:25:38.028Z,75.89
2022-08-26T20:28:10.027Z,76.00
2022-08-26T20:30:41.906Z,76.35
2022-08-26T20:33:13.557Z,75.91
2022-08-26T20:35:49.169Z,75.96
2022-08-26T20:38:21.581Z,76.68
2022-08-26T20:40:54.127Z,75.96
2022-08-26T20:43:28.059Z,76.46
2022-08-26T20:46:00.711Z,76.67
2022-08-26T20:48:35.022Z,76.45
2022-08-26T20:51:06.787Z,76.76
2022-08-26T20:53:41.367Z,77.05
2022-08-26T20:56:15.334Z,76.93
2022-08-26T20:58:47.160Z,77.39
2022-08-26T21:01:24.562Z,77.66
2022-08-26T21:03:57.215Z,77.43
2022-08-26T21:06:29.665Z,76.94
2022-08-26T21:09:04.137Z,77.29
2022-08-26T21:11:37.164Z,78.36
2022-08-26T21:14:16.260Z,78.80
2022-08-26T21:16:49.878Z,78.43
2022-08-26T21:19:21.735Z,78.19
2022-08-26T21:21:53.696Z,77.96
2022-08-26T21:24:25.396Z,78.04
2022-08-26T21:26:57.065Z,78.06
2022-08-26T21:29:28.710Z,78.16
2022-08-26T21:32:00.484Z,78.03
2022-08-26T21:34:32.277Z,78.21
2022-08-26T21:37:08.961Z,78.43
2022-08-26T21:39:48.474Z,78.61
2022-08-26T21:42:20.420Z,78.18
2022-08-26T21:44:53.485Z,77.72
2022-08-26T21:47:25.674Z,78.15
2022-08-26T21:49:57.427Z,78.60
2022-08-26T21:52:29.365Z,78.89
2022-08-26T21:55:02.376Z,79.48
2022-08-26T21:57:34.292Z,79.27
2022-08-26T22:00:09.031Z,78.81
2022-08-26T22:02:40.702Z,78.75
2022-08-26T22:05:12.454Z,78.89
2022-08-26T22:07:46.140Z,78.99
2022-08-26T22:10:17.814Z,79.63
2022-08-26T22:12:49.436Z,80.25
2022-08-26T22:15:23.277Z,80.80
2022-08-26T22:17:54.982Z,79.92
2022-08-26T22:20:26.638Z,79.98
2022-08-26T22:22:59.026Z,80.36
2022-08-26T22:25:30.813Z,80.52
2022-08-26T22:28:02.637Z,79.65
2022-08-26T22:30:35.377Z,79.45
2022-08-26T22:33:07.030Z,79.51
2022-08-26T22:35:43.720Z,79.61
2022-08-26T22:38:16.028Z,79.40
2022-08-26T22:40:57.140Z,79.29
2022-08-26T22:43:29.537Z,79.50
2022-08-26T22:46:01.276Z,79.43
2022-08-26T22:48:32.913Z,79.44
2022-08-26T22:51:05.374Z,79.62
2022-08-26T22:53:40.044Z,79.33
2022-08-26T22:56:14.554Z,79.46
2022-08-26T22:58:49.377Z,79.63
2022-08-26T23:01:21.200Z,79.50
2022-08-26T23:03:53.571Z,79.48
2022-08-26T23:06:25.255Z,79.73
2022-08-26T23:08:56.890Z,79.77
2022-08-26T23:11:28.529Z,79.95
2022-08-26T23:14:05.040Z,79.88
2022-08-26T23:16:41.606Z,79.76
2022-08-26T23:19:15.096Z,79.91
2022-08-26T23:21:47.625Z,80.22
2022-08-26T23:24:19.381Z,80.95
2022-08-26T23:26:51.092Z,80.75
2022-08-26T23:29:22.716Z,80.66
2022-08-26T23:31:54.544Z,80.57
2022-08-26T23:34:44.735Z,81.14
2022-08-26T23:37:19.631Z,81.44
2022-08-26T23:39:52.841Z,81.17
2022-08-26T23:42:27.851Z,81.29
2022-08-26T23:45:02.684Z,81.29
2022-08-26T23:47:35.127Z,81.61
2022-08-26T23:50:08.298Z,81.92
2022-08-26T23:52:58.558Z,81.60
2022-08-26T23:55:34.475Z,81.84
2022-08-26T23:58:06.713Z,81.52
